Time;durP1;ratioP1;P1;durP2;ratioP2;P2;SDS_P1;SDS_P2;PMS_P1;PMS_P2;Temp;Humidity;BMP_temperature;BMP_pressure;BME280_temperature;BME280_humidity;BME280_pressure;Samples;Min_cycle;Max_cycle;Signal;HPM_P1;HPM_P2
2022/09/04 00:00:23;;;;;;;3.10;2.80;;;;;;;;;;5072565;28;20241;-86
2022/09/04 00:02:57;;;;;;;4.70;3.23;;;;;;;;;;5072757;28;20220;-86
2022/09/04 00:05:27;;;;;;;2.97;2.73;;;;;;;;;;5072034;28;20248;-86
2022/09/04 00:08:02;;;;;;;3.63;3.33;;;;;;;;;;5072528;28;20232;-85
2022/09/04 00:10:30;;;;;;;3.60;3.30;;;;;;;;;;5071955;28;20243;-86
2022/09/04 00:12:59;;;;;;;5.17;3.93;;;;;;;;;;5072410;28;20213;-85
2022/09/04 00:15:34;;;;;;;6.73;4.30;;;;;;;;;;5071942;28;20232;-85
2022/09/04 00:18:07;;;;;;;6.60;5.30;;;;;;;;;;5072639;28;20198;-86
2022/09/04 00:20:38;;;;;;;5.77;5.17;;;;;;;;;;5071905;28;20240;-85
2022/09/04 00:23:11;;;;;;;6.63;6.00;;;;;;;;;;5072210;28;20571;-86
2022/09/04 00:25:41;;;;;;;6.13;5.33;;;;;;;;;;5071817;28;20237;-84
2022/09/04 00:28:12;;;;;;;6.10;5.50;;;;;;;;;;5072207;28;20221;-85
2022/09/04 00:30:43;;;;;;;6.43;5.73;;;;;;;;;;5071758;28;20233;-85
2022/09/04 00:33:13;;;;;;;6.80;5.57;;;;;;;;;;5072400;28;20276;-85
2022/09/04 00:35:43;;;;;;;6.40;5.40;;;;;;;;;;5071558;28;20244;-85
2022/09/04 00:38:14;;;;;;;5.40;4.90;;;;;;;;;;5072227;28;20202;-85
2022/09/04 00:40:43;;;;;;;4.70;3.93;;;;;;;;;;5071857;28;20228;-85
2022/09/04 00:43:23;;;;;;;4.20;3.90;;;;;;;;;;5072378;28;20209;-85
2022/09/04 00:46:08;;;;;;;3.90;2.80;;;;;;;;;;5071550;28;20603;-86
2022/09/04 00:48:45;;;;;;;3.00;2.80;;;;;;;;;;5071633;28;20229;-85
2022/09/04 00:51:18;;;;;;;3.10;2.80;;;;;;;;;;5071521;28;20339;-86
2022/09/04 00:54:03;;;;;;;3.03;2.73;;;;;;;;;;5072406;28;20216;-86
2022/09/04 00:56:41;;;;;;;3.93;2.63;;;;;;;;;;5041632;28;20229;-86
2022/09/04 00:59:15;;;;;;;2.97;2.77;;;;;;;;;;5053445;28;20178;-86
2022/09/04 01:01:45;;;;;;;2.77;2.57;;;;;;;;;;5071712;28;20648;-86
2022/09/04 01:04:23;;;;;;;3.40;2.50;;;;;;;;;;5074947;28;20200;-85
2022/09/04 01:06:55;;;;;;;2.30;2.10;;;;;;;;;;5073985;28;20232;-85
2022/09/04 01:09:38;;;;;;;2.40;2.10;;;;;;;;;;5075250;28;20751;-85
2022/09/04 01:12:16;;;;;;;2.50;2.27;;;;;;;;;;5075590;28;20213;-86
2022/09/04 01:14:54;;;;;;;2.63;2.43;;;;;;;;;;5075018;28;20240;-85
2022/09/04 01:17:26;;;;;;;2.50;2.30;;;;;;;;;;5076010;28;20598;-85
2022/09/04 01:19:56;;;;;;;3.03;2.60;;;;;;;;;;5075563;28;20232;-85
2022/09/04 01:22:41;;;;;;;2.77;2.57;;;;;;;;;;5075419;28;20662;-84
2022/09/04 01:25:16;;;;;;;4.97;2.53;;;;;;;;;;5064738;28;20298;-85
2022/09/04 01:27:50;;;;;;;2.90;2.70;;;;;;;;;;5075300;28;20216;-85
2022/09/04 01:30:18;;;;;;;2.77;2.27;;;;;;;;;;5075139;28;20233;-85
2022/09/04 01:32:50;;;;;;;3.90;2.67;;;;;;;;;;5075039;28;20201;-85
2022/09/04 01:35:25;;;;;;;3.13;2.83;;;;;;;;;;5074952;28;20709;-85
2022/09/04 01:37:58;;;;;;;3.53;3.20;;;;;;;;;;5075647;28;20204;-84
2022/09/04 01:40:35;;;;;;;2.97;2.77;;;;;;;;;;5074931;28;20237;-85
2022/09/04 01:43:06;;;;;;;4.23;3.83;;;;;;;;;;5075246;28;20197;-83
2022/09/04 01:45:38;;;;;;;3.63;3.10;;;;;;;;;;5074429;28;20616;-86
2022/09/04 01:48:09;;;;;;;3.20;2.90;;;;;;;;;;5075260;28;20209;-86
2022/09/04 01:50:37;;;;;;;6.23;3.03;;;;;;;;;;5074447;28;20291;-86
2022/09/04 01:53:07;;;;;;;3.43;3.13;;;;;;;;;;5075025;28;20644;-84
2022/09/04 01:55:36;;;;;;;3.90;3.57;;;;;;;;;;5074496;28;20245;-85
2022/09/04 01:58:12;;;;;;;3.93;3.37;;;;;;;;;;5075047;28;20201;-85
2022/09/04 02:00:45;;;;;;;3.57;3.00;;;;;;;;;;5074402;28;20228;-85
2022/09/04 02:03:16;;;;;;;4.70;3.27;;;;;;;;;;5075032;28;20189;-85
2022/09/04 02:05:49;;;;;;;4.47;3.40;;;;;;;;;;5074208;28;20806;-85
2022/09/04 02:08:26;;;;;;;3.80;3.50;;;;;;;;;;5074957;28;20213;-85
2022/09/04 02:10:57;;;;;;;4.17;3.80;;;;;;;;;;5074307;28;20236;-85
2022/09/04 02:13:33;;;;;;;4.00;3.60;;;;;;;;;;5074919;28;20220;-85
2022/09/04 02:16:05;;;;;;;4.57;3.20;;;;;;;;;;5073396;28;20241;-85
2022/09/04 02:18:37;;;;;;;4.80;3.47;;;;;;;;;;5074715;28;20204;-85
2022/09/04 02:21:08;;;;;;;4.13;3.60;;;;;;;;;;5073844;28;20244;-85
2022/09/04 02:23:37;;;;;;;3.97;3.67;;;;;;;;;;5074616;28;20189;-85
2022/09/04 02:26:08;;;;;;;4.03;3.70;;;;;;;;;;5073822;28;20656;-85
2022/09/04 02:28:44;;;;;;;4.17;3.83;;;;;;;;;;5074572;28;20206;-84
2022/09/04 02:31:15;;;;;;;4.07;3.67;;;;;;;;;;5073720;28;20232;-85
2022/09/04 02:33:48;;;;;;;4.07;3.67;;;;;;;;;;5074689;28;20190;-85
2022/09/04 02:36:19;;;;;;;3.70;3.40;;;;;;;;;;5073635;28;20237;-86
2022/09/04 02:38:51;;;;;;;3.73;3.43;;;;;;;;;;5074501;28;20186;-85
2022/09/04 02:41:22;;;;;;;5.07;3.40;;;;;;;;;;5054062;28;20240;-85
2022/09/04 02:43:58;;;;;;;3.10;2.80;;;;;;;;;;5055916;28;20198;-85
2022/09/04 02:46:28;;;;;;;3.30;3.00;;;;;;;;;;5070543;28;20229;-85
2022/09/04 02:49:01;;;;;;;5.53;3.30;;;;;;;;;;5070353;28;20237;-85
2022/09/04 02:51:37;;;;;;;3.80;3.13;;;;;;;;;;5090597;28;20234;-86
2022/09/04 02:54:10;;;;;;;4.43;2.60;;;;;;;;;;5073587;28;20215;-83
2022/09/04 02:56:42;;;;;;;5.47;2.80;;;;;;;;;;5073997;28;20229;-85
2022/09/04 02:59:21;;;;;;;6.37;2.90;;;;;;;;;;5073369;28;20728;-86
2022/09/04 03:01:51;;;;;;;3.23;2.93;;;;;;;;;;5076419;28;20221;-85
2022/09/04 03:04:20;;;;;;;5.17;3.20;;;;;;;;;;5073164;28;20692;-86
2022/09/04 03:06:50;;;;;;;3.60;3.13;;;;;;;;;;5073506;28;20240;-85
2022/09/04 03:09:20;;;;;;;4.13;3.20;;;;;;;;;;5073098;28;20240;-85
2022/09/04 03:11:51;;;;;;;5.53;3.03;;;;;;;;;;5073431;28;20233;-83
2022/09/04 03:14:23;;;;;;;4.23;3.30;;;;;;;;;;5072877;28;20233;-86
2022/09/04 03:16:52;;;;;;;5.83;3.30;;;;;;;;;;5073371;28;20220;-86
2022/09/04 03:19:22;;;;;;;3.57;3.27;;;;;;;;;;5072930;28;20701;-85
2022/09/04 03:21:51;;;;;;;4.10;3.40;;;;;;;;;;5073337;28;20209;-85
2022/09/04 03:24:21;;;;;;;3.53;3.10;;;;;;;;;;5072795;28;20252;-86
2022/09/04 03:26:50;;;;;;;3.63;3.17;;;;;;;;;;5072445;28;20598;-85
2022/09/04 03:29:23;;;;;;;6.93;3.30;;;;;;;;;;5072630;28;20241;-84
2022/09/04 03:31:57;;;;;;;4.23;3.30;;;;;;;;;;5072727;28;20693;-85
2022/09/04 03:34:30;;;;;;;4.23;3.40;;;;;;;;;;5072682;28;20279;-85
2022/09/04 03:37:03;;;;;;;3.50;3.20;;;;;;;;;;5073308;28;20229;-85
2022/09/04 03:39:34;;;;;;;3.40;3.10;;;;;;;;;;5072886;28;20274;-85
2022/09/04 03:42:09;;;;;;;3.10;2.80;;;;;;;;;;5073041;28;20186;-85
2022/09/04 03:44:43;;;;;;;3.27;3.07;;;;;;;;;;5072534;28;20240;-85
2022/09/04 03:47:14;;;;;;;3.40;2.60;;;;;;;;;;5073163;28;20242;-84
2022/09/04 03:49:48;;;;;;;3.40;3.10;;;;;;;;;;5072183;28;20244;-85
2022/09/04 03:52:20;;;;;;;5.27;2.77;;;;;;;;;;5072789;28;20197;-85
2022/09/04 03:55:04;;;;;;;2.80;2.60;;;;;;;;;;5072211;28;20244;-85
2022/09/04 03:57:45;;;;;;;2.90;2.70;;;;;;;;;;5072877;28;20211;-85
2022/09/04 04:00:17;;;;;;;2.93;2.63;;;;;;;;;;5072285;28;20260;-85
2022/09/04 04:02:53;;;;;;;3.00;2.80;;;;;;;;;;5072390;28;20201;-85
2022/09/04 04:05:35;;;;;;;3.40;3.10;;;;;;;;;;5071966;28;20705;-85
2022/09/04 04:08:14;;;;;;;3.10;2.83;;;;;;;;;;5072606;28;20209;-83
2022/09/04 04:10:46;;;;;;;3.30;3.00;;;;;;;;;;5071800;28;20282;-85
2022/09/04 04:13:21;;;;;;;3.57;2.60;;;;;;;;;;5073016;28;20193;-83
2022/09/04 04:15:59;;;;;;;4.27;2.47;;;;;;;;;;5075938;28;20236;-84
2022/09/04 04:18:38;;;;;;;5.03;3.70;;;;;;;;;;5077206;28;20769;-83
2022/09/04 04:21:09;;;;;;;3.17;2.83;;;;;;;;;;5076158;28;20254;-83
2022/09/04 04:23:50;;;;;;;3.33;3.03;;;;;;;;;;5077048;28;20189;-84
2022/09/04 04:26:22;;;;;;;2.83;2.63;;;;;;;;;;5076288;28;20693;-83
2022/09/04 04:28:58;;;;;;;6.63;3.40;;;;;;;;;;5076273;28;20205;-83
2022/09/04 04:31:33;;;;;;;6.07;4.77;;;;;;;;;;5057015;28;20727;-84
2022/09/04 04:34:03;;;;;;;4.47;4.07;;;;;;;;;;5057275;28;20190;-83
2022/09/04 04:36:36;;;;;;;7.97;3.80;;;;;;;;;;5076548;28;20236;-84
2022/09/04 04:39:10;;;;;;;4.63;3.90;;;;;;;;;;5077158;28;20185;-83
2022/09/04 04:45:48;;;;;;;9.23;3.90;;;;;;;;;;5083055;28;20224;-83
2022/09/04 04:47:16;;;;;;;6.47;3.67;;;;;;;;;;5080618;28;20283;-84
2022/09/04 04:49:52;;;;;;;5.63;3.60;;;;;;;;;;5079706;28;20253;-83
2022/09/04 04:52:27;;;;;;;6.10;3.53;;;;;;;;;;5074721;28;20523;-83
2022/09/04 04:55:05;;;;;;;5.57;3.70;;;;;;;;;;5073901;28;20232;-84
2022/09/04 04:57:35;;;;;;;5.90;3.43;;;;;;;;;;5074518;28;20199;-84
2022/09/04 05:00:11;;;;;;;4.30;3.47;;;;;;;;;;5074265;28;20264;-84
2022/09/04 05:02:42;;;;;;;5.40;3.60;;;;;;;;;;5074264;28;20200;-83
2022/09/04 05:05:14;;;;;;;3.93;3.37;;;;;;;;;;5073710;28;20244;-84
2022/09/04 05:07:52;;;;;;;4.33;3.70;;;;;;;;;;5075095;28;20197;-83
2022/09/04 05:10:21;;;;;;;6.93;3.47;;;;;;;;;;5074287;28;20744;-83
2022/09/04 05:12:57;;;;;;;3.70;3.40;;;;;;;;;;5074390;28;20273;-83
2022/09/04 05:15:28;;;;;;;3.33;2.90;;;;;;;;;;5073723;28;20251;-84
2022/09/04 05:17:56;;;;;;;3.47;3.17;;;;;;;;;;5074572;28;20190;-83
2022/09/04 05:20:30;;;;;;;4.77;3.80;;;;;;;;;;5074968;28;20233;-84
2022/09/04 05:23:09;;;;;;;4.43;3.17;;;;;;;;;;5075894;28;20549;-84
2022/09/04 05:25:39;;;;;;;8.80;3.97;;;;;;;;;;5075576;28;20241;-83
2022/09/04 05:28:13;;;;;;;4.57;3.90;;;;;;;;;;5075869;28;20213;-83
2022/09/04 05:30:44;;;;;;;6.83;4.10;;;;;;;;;;5076167;28;20749;-83
2022/09/04 05:33:15;;;;;;;9.53;3.90;;;;;;;;;;5055452;28;20220;-85
2022/09/04 05:35:49;;;;;;;4.00;3.70;;;;;;;;;;5054605;28;20245;-83
2022/09/04 05:38:18;;;;;;;4.73;4.30;;;;;;;;;;5056391;28;20183;-84
2022/09/04 05:40:52;;;;;;;5.20;4.70;;;;;;;;;;5063385;28;20229;-84
2022/09/04 05:43:26;;;;;;;5.67;4.77;;;;;;;;;;5076331;28;20185;-84
2022/09/04 05:46:05;;;;;;;6.50;4.63;;;;;;;;;;5075290;28;20248;-83
2022/09/04 05:48:36;;;;;;;5.33;4.60;;;;;;;;;;5075521;28;20224;-84
2022/09/04 05:51:22;;;;;;;6.30;4.97;;;;;;;;;;5077766;28;20236;-83
2022/09/04 05:53:58;;;;;;;5.53;5.03;;;;;;;;;;5080204;28;20190;-83
2022/09/04 05:56:43;;;;;;;5.87;5.13;;;;;;;;;;5059169;28;20226;-83
2022/09/04 05:59:28;;;;;;;5.73;5.20;;;;;;;;;;5057971;28;20564;-81
2022/09/04 06:02:05;;;;;;;4.93;4.53;;;;;;;;;;5059789;28;20197;-81
2022/09/04 06:04:46;;;;;;;6.00;5.40;;;;;;;;;;5057877;28;20237;-81
2022/09/04 06:07:22;;;;;;;6.57;5.30;;;;;;;;;;5056766;28;20190;-80
2022/09/04 06:09:58;;;;;;;6.63;6.03;;;;;;;;;;5057497;28;20244;-81
2022/09/04 06:12:34;;;;;;;9.20;5.97;;;;;;;;;;5057824;28;20248;-80
2022/09/04 06:15:06;;;;;;;6.63;5.93;;;;;;;;;;5036243;28;20239;-80
2022/09/04 06:17:38;;;;;;;6.80;6.10;;;;;;;;;;5041806;28;20195;-80
2022/09/04 06:20:16;;;;;;;7.07;6.03;;;;;;;;;;5056413;28;20230;-81
2022/09/04 06:22:58;;;;;;;7.10;6.40;;;;;;;;;;5056361;28;20205;-80
2022/09/04 06:25:32;;;;;;;7.77;6.97;;;;;;;;;;5055256;28;20335;-81
2022/09/04 06:28:09;;;;;;;7.80;7.10;;;;;;;;;;5055927;28;20198;-81
2022/09/04 06:30:38;;;;;;;8.80;7.90;;;;;;;;;;5054920;28;20264;-80
2022/09/04 06:33:12;;;;;;;8.20;7.30;;;;;;;;;;5055847;28;20205;-80
2022/09/04 06:35:47;;;;;;;8.87;7.97;;;;;;;;;;5055762;28;20268;-82
2022/09/04 06:38:25;;;;;;;8.13;7.33;;;;;;;;;;5055823;28;20630;-80
2022/09/04 06:40:57;;;;;;;8.70;7.80;;;;;;;;;;5056974;28;20233;-80
2022/09/04 06:43:27;;;;;;;8.00;7.20;;;;;;;;;;5056129;28;20572;-80
2022/09/04 06:46:01;;;;;;;9.47;7.50;;;;;;;;;;5054194;28;20249;-80
2022/09/04 06:48:33;;;;;;;10.33;8.27;;;;;;;;;;5055128;28;20616;-80
2022/09/04 06:51:06;;;;;;;10.73;7.97;;;;;;;;;;5054312;28;20233;-80
2022/09/04 06:53:45;;;;;;;9.93;8.13;;;;;;;;;;5055182;28;20195;-81
2022/09/04 06:56:27;;;;;;;11.47;7.47;;;;;;;;;;5054189;28;20610;-80
2022/09/04 06:59:01;;;;;;;9.93;7.63;;;;;;;;;;5054670;28;20202;-80
2022/09/04 07:01:39;;;;;;;10.37;7.77;;;;;;;;;;5049038;28;20663;-82
2022/09/04 07:04:15;;;;;;;9.30;8.30;;;;;;;;;;5063362;28;20213;-80
2022/09/04 07:06:48;;;;;;;10.77;8.43;;;;;;;;;;5054533;28;20229;-80
2022/09/04 07:09:19;;;;;;;11.73;9.10;;;;;;;;;;5057814;28;20627;-80
2022/09/04 07:11:55;;;;;;;12.20;9.90;;;;;;;;;;5074823;28;20529;-79
2022/09/04 07:14:35;;;;;;;13.07;9.27;;;;;;;;;;5074378;28;20258;-79
2022/09/04 07:17:08;;;;;;;12.53;9.63;;;;;;;;;;5075027;28;20186;-81
2022/09/04 07:19:41;;;;;;;13.77;9.53;;;;;;;;;;5074135;28;20252;-80
2022/09/04 07:22:15;;;;;;;12.43;8.43;;;;;;;;;;5074955;28;20612;-80
2022/09/04 07:25:06;;;;;;;11.10;8.53;;;;;;;;;;5078236;28;20225;-78
2022/09/04 07:27:39;;;;;;;10.10;8.63;;;;;;;;;;5077972;28;20186;-81
2022/09/04 07:30:08;;;;;;;10.50;8.70;;;;;;;;;;5074725;28;20250;-79
2022/09/04 07:32:38;;;;;;;10.10;7.50;;;;;;;;;;5073527;28;20201;-80
2022/09/04 07:35:09;;;;;;;7.80;7.00;;;;;;;;;;5073220;28;20244;-80
2022/09/04 07:37:42;;;;;;;6.97;6.27;;;;;;;;;;5074004;28;20200;-79
2022/09/04 07:40:14;;;;;;;7.37;6.60;;;;;;;;;;5073214;28;20268;-80
2022/09/04 07:42:45;;;;;;;5.80;5.30;;;;;;;;;;5076225;28;20196;-81
2022/09/04 07:45:21;;;;;;;6.30;5.70;;;;;;;;;;5076688;28;20252;-80
2022/09/04 07:47:54;;;;;;;8.07;6.07;;;;;;;;;;5074645;28;20236;-80
2022/09/04 07:50:23;;;;;;;7.10;5.95;;;;;;;;;;5072387;28;20240;-79
2022/09/04 07:52:58;;;;;;;7.07;6.22;;;;;;;;;;5073988;28;20212;-79
2022/09/04 07:55:35;;;;;;;8.95;6.90;;;;;;;;;;5073807;28;20240;-80
2022/09/04 07:58:23;;;;;;;9.30;6.60;;;;;;;;;;5073264;28;20197;-80
2022/09/04 08:00:55;;;;;;;11.75;7.10;;;;;;;;;;5074273;28;20233;-81
2022/09/04 08:03:28;;;;;;;8.73;6.05;;;;;;;;;;5076236;28;20185;-81
2022/09/04 08:06:04;;;;;;;8.85;6.78;;;;;;;;;;5081188;28;20237;-81
2022/09/04 08:08:53;;;;;;;8.02;7.15;;;;;;;;;;5080101;28;20209;-83
2022/09/04 08:11:28;;;;;;;9.30;6.80;;;;;;;;;;5075401;28;20206;-82
2022/09/04 08:14:12;;;;;;;7.05;6.22;;;;;;;;;;5074827;28;20190;-81
2022/09/04 08:16:44;;;;;;;8.48;6.50;;;;;;;;;;5079381;28;20214;-82
2022/09/04 08:19:28;;;;;;;9.27;6.95;;;;;;;;;;5099341;28;20232;-82
2022/09/04 08:21:55;;;;;;;8.02;6.50;;;;;;;;;;5099601;28;20215;-82
2022/09/04 08:24:31;;;;;;;8.23;6.45;;;;;;;;;;5098560;28;20246;-82
2022/09/04 08:27:06;;;;;;;8.90;7.18;;;;;;;;;;5098669;28;20279;-82
2022/09/04 08:29:40;;;;;;;8.25;6.97;;;;;;;;;;5062489;28;20251;-82
2022/09/04 08:32:14;;;;;;;6.88;6.18;;;;;;;;;;5078634;28;20402;-82
2022/09/04 08:34:59;;;;;;;8.13;6.10;;;;;;;;;;5077291;28;20233;-83
2022/09/04 08:37:27;;;;;;;8.75;7.07;;;;;;;;;;5077813;28;20192;-82
2022/09/04 08:40:03;;;;;;;9.60;7.70;;;;;;;;;;5077044;28;20229;-82
2022/09/04 08:42:52;;;;;;;8.55;6.63;;;;;;;;;;5076712;28;20200;-83
2022/09/04 08:45:31;;;;;;;9.00;6.35;;;;;;;;;;5075581;28;20237;-83
2022/09/04 08:48:08;;;;;;;8.52;6.78;;;;;;;;;;5076844;28;20209;-82
2022/09/04 08:50:50;;;;;;;9.95;7.43;;;;;;;;;;5076539;28;20224;-81
2022/09/04 08:53:27;;;;;;;10.63;7.45;;;;;;;;;;5030868;28;20227;-81
2022/09/04 08:55:58;;;;;;;8.57;6.95;;;;;;;;;;5071858;28;20227;-79
2022/09/04 08:58:52;;;;;;;10.80;6.70;;;;;;;;;;5095452;28;20199;-79
2022/09/04 09:01:37;;;;;;;8.60;6.68;;;;;;;;;;5072832;28;20232;-79
2022/09/04 09:04:13;;;;;;;8.75;6.72;;;;;;;;;;5074906;28;20284;-79
2022/09/04 09:06:52;;;;;;;8.57;6.60;;;;;;;;;;5094407;28;20224;-79
2022/09/04 09:09:46;;;;;;;7.95;6.90;;;;;;;;;;5092477;28;20235;-79
2022/09/04 09:12:32;;;;;;;10.23;6.03;;;;;;;;;;5092599;28;20196;-79
2022/09/04 09:15:17;;;;;;;7.90;6.55;;;;;;;;;;5094258;28;20716;-80
2022/09/04 09:17:54;;;;;;;6.97;6.28;;;;;;;;;;5094885;28;20594;-79
2022/09/04 09:20:27;;;;;;;6.65;5.95;;;;;;;;;;5087678;28;20251;-79
2022/09/04 09:23:15;;;;;;;8.50;6.65;;;;;;;;;;5067817;28;20993;-79
2022/09/04 09:25:47;;;;;;;7.45;5.68;;;;;;;;;;5055564;28;20238;-78
2022/09/04 09:28:35;;;;;;;8.10;6.35;;;;;;;;;;5056329;28;20663;-78
2022/09/04 09:31:25;;;;;;;7.70;6.28;;;;;;;;;;5055369;28;20233;-78
2022/09/04 09:34:05;;;;;;;7.00;6.00;;;;;;;;;;5055641;28;20263;-78
2022/09/04 09:36:42;;;;;;;8.32;5.90;;;;;;;;;;5057246;28;20256;-78
2022/09/04 09:39:28;;;;;;;9.23;6.82;;;;;;;;;;5074325;28;20205;-79
2022/09/04 09:42:02;;;;;;;7.35;6.03;;;;;;;;;;5081923;28;20255;-79
2022/09/04 09:44:41;;;;;;;6.45;5.85;;;;;;;;;;5076979;28;20237;-81
2022/09/04 09:47:20;;;;;;;7.05;5.28;;;;;;;;;;5077974;28;20587;-80
2022/09/04 09:50:03;;;;;;;6.57;5.22;;;;;;;;;;5077553;28;20237;-79
2022/09/04 09:52:56;;;;;;;10.75;5.90;;;;;;;;;;5075326;28;20194;-80
2022/09/04 09:55:44;;;;;;;7.72;5.65;;;;;;;;;;5078425;28;20237;-79
2022/09/04 09:58:21;;;;;;;6.72;5.55;;;;;;;;;;5075994;28;20210;-80
2022/09/04 10:00:57;;;;;;;8.43;5.72;;;;;;;;;;5079238;28;20237;-81
2022/09/04 10:03:40;;;;;;;6.45;5.03;;;;;;;;;;5079751;28;20193;-79
2022/09/04 10:06:26;;;;;;;6.68;4.95;;;;;;;;;;5086090;28;20241;-80
2022/09/04 10:09:14;;;;;;;6.50;5.22;;;;;;;;;;5094309;28;20198;-81
2022/09/04 10:12:06;;;;;;;7.80;4.80;;;;;;;;;;5082415;28;20221;-79
2022/09/04 10:15:02;;;;;;;6.35;4.72;;;;;;;;;;5054973;28;20283;-79
2022/09/04 10:17:44;;;;;;;5.90;4.85;;;;;;;;;;5054838;28;20531;-79
2022/09/04 10:20:22;;;;;;;5.70;4.45;;;;;;;;;;5050540;28;20221;-80
2022/09/04 10:23:16;;;;;;;5.25;4.38;;;;;;;;;;5074897;28;20652;-80
2022/09/04 10:25:51;;;;;;;4.25;3.85;;;;;;;;;;5075194;28;20237;-80
2022/09/04 10:28:47;;;;;;;4.90;3.80;;;;;;;;;;5077432;28;20189;-80
2022/09/04 10:31:38;;;;;;;2.75;2.55;;;;;;;;;;5074355;28;20651;-82
2022/09/04 10:34:22;;;;;;;3.70;3.40;;;;;;;;;;5044802;28;20210;-80
2022/09/04 10:36:57;;;;;;;3.40;3.10;;;;;;;;;;5067830;28;20236;-80
2022/09/04 10:42:26;;;;;;;3.30;3.00;;;;;;;;;;5075087;28;20196;-81
2022/09/04 10:45:10;;;;;;;4.47;3.10;;;;;;;;;;5074905;28;20245;-79
2022/09/04 10:47:51;;;;;;;3.78;3.03;;;;;;;;;;5074998;28;20186;-81
2022/09/04 10:50:24;;;;;;;2.78;2.58;;;;;;;;;;5074435;28;20693;-80
2022/09/04 10:53:10;;;;;;;3.45;3.15;;;;;;;;;;5075133;28;20198;-80
2022/09/04 10:55:47;;;;;;;4.28;3.72;;;;;;;;;;5074701;28;20237;-81
2022/09/04 10:58:28;;;;;;;3.80;3.20;;;;;;;;;;5074938;28;20231;-80
2022/09/04 11:01:13;;;;;;;3.55;3.05;;;;;;;;;;5074478;28;20233;-80
2022/09/04 11:03:46;;;;;;;3.17;2.60;;;;;;;;;;5075422;28;20211;-80
2022/09/04 11:06:48;;;;;;;3.00;2.72;;;;;;;;;;5074229;28;20717;-81
2022/09/04 11:09:33;;;;;;;3.95;3.13;;;;;;;;;;4982007;28;20231;-80
2022/09/04 11:12:25;;;;;;;2.72;2.50;;;;;;;;;;4980516;28;20220;-80
2022/09/04 11:15:11;;;;;;;2.60;2.40;;;;;;;;;;5039560;28;20244;-81
2022/09/04 11:17:47;;;;;;;2.63;2.22;;;;;;;;;;5071869;22;20216;-83
2022/09/04 11:20:34;;;;;;;2.60;2.40;;;;;;;;;;5034123;28;20270;-83
2022/09/04 11:23:28;;;;;;;3.70;3.30;;;;;;;;;;5018539;28;20197;-83
2022/09/04 11:26:04;;;;;;;2.90;2.60;;;;;;;;;;4990449;28;20251;-83
2022/09/04 11:28:39;;;;;;;2.58;2.38;;;;;;;;;;4990878;28;20601;-84
2022/09/04 11:31:19;;;;;;;4.60;2.95;;;;;;;;;;4990341;28;20323;-85
2022/09/04 11:34:10;;;;;;;3.22;2.92;;;;;;;;;;4990917;28;20257;-83
2022/09/04 11:36:55;;;;;;;2.58;2.38;;;;;;;;;;4971287;28;20229;-84
2022/09/04 11:39:42;;;;;;;3.30;2.72;;;;;;;;;;4977445;28;20242;-84
2022/09/04 11:42:20;;;;;;;3.13;2.75;;;;;;;;;;5003735;28;20200;-84
2022/09/04 11:44:57;;;;;;;5.55;2.85;;;;;;;;;;4991130;28;20231;-82
2022/09/04 11:47:56;;;;;;;3.83;2.80;;;;;;;;;;4981337;28;20203;-80
2022/09/04 11:50:45;;;;;;;5.20;2.50;;;;;;;;;;4990469;28;20236;-83
2022/09/04 11:53:23;;;;;;;3.70;2.67;;;;;;;;;;4990471;28;20691;-84
2022/09/04 11:55:58;;;;;;;3.20;2.90;;;;;;;;;;4980428;28;20236;-84
2022/09/04 11:58:35;;;;;;;3.85;3.20;;;;;;;;;;4991258;28;20285;-84
2022/09/04 12:01:13;;;;;;;3.35;2.83;;;;;;;;;;4971439;28;20236;-84
2022/09/04 12:03:51;;;;;;;3.20;2.55;;;;;;;;;;4991453;28;20597;-84
2022/09/04 12:06:28;;;;;;;3.10;2.80;;;;;;;;;;4991951;28;20224;-84
2022/09/04 12:09:04;;;;;;;3.42;2.60;;;;;;;;;;4990249;28;20707;-85
2022/09/04 12:11:42;;;;;;;3.90;2.63;;;;;;;;;;4990777;28;20221;-85
2022/09/04 12:14:16;;;;;;;2.97;2.70;;;;;;;;;;4990729;28;20211;-83
2022/09/04 12:17:00;;;;;;;3.03;2.50;;;;;;;;;;4991195;28;20261;-83
2022/09/04 12:19:41;;;;;;;2.80;2.60;;;;;;;;;;4990969;28;20271;-86
2022/09/04 12:22:33;;;;;;;2.75;2.47;;;;;;;;;;4990841;28;20242;-83
2022/09/04 12:25:14;;;;;;;3.00;2.70;;;;;;;;;;4991530;28;20236;-84
2022/09/04 12:28:05;;;;;;;2.80;2.50;;;;;;;;;;4990665;28;20188;-83
2022/09/04 12:30:47;;;;;;;2.60;2.40;;;;;;;;;;4997585;28;20243;-81
2022/09/04 12:33:32;;;;;;;3.45;2.10;;;;;;;;;;5010067;28;20255;-84
2022/09/04 12:36:17;;;;;;;3.15;2.13;;;;;;;;;;4994556;28;20223;-82
2022/09/04 12:39:02;;;;;;;2.47;2.20;;;;;;;;;;4990692;28;20228;-83
2022/09/04 12:41:33;;;;;;;3.40;2.13;;;;;;;;;;4989597;28;20227;-82
2022/09/04 12:44:07;;;;;;;2.30;2.10;;;;;;;;;;4989709;28;20193;-82
2022/09/04 12:46:40;;;;;;;2.00;1.90;;;;;;;;;;4991457;28;20208;-85
2022/09/04 12:49:25;;;;;;;2.55;2.10;;;;;;;;;;4992357;28;20720;-85
2022/09/04 12:51:56;;;;;;;1.77;1.67;;;;;;;;;;4991324;28;20231;-85
2022/09/04 12:54:32;;;;;;;2.22;2.08;;;;;;;;;;4990899;28;20619;-85
2022/09/04 12:57:11;;;;;;;2.65;1.90;;;;;;;;;;4991493;28;20196;-85
2022/09/04 12:59:45;;;;;;;2.28;1.55;;;;;;;;;;4988165;28;20255;-85
2022/09/04 13:02:17;;;;;;;1.85;1.70;;;;;;;;;;4974593;28;20215;-85
2022/09/04 13:04:48;;;;;;;1.77;1.67;;;;;;;;;;4973699;28;20242;-83
2022/09/04 13:07:25;;;;;;;1.70;1.60;;;;;;;;;;4989038;28;20203;-85
2022/09/04 13:10:00;;;;;;;1.88;1.70;;;;;;;;;;4992947;28;20239;-85
2022/09/04 13:12:31;;;;;;;1.92;1.42;;;;;;;;;;4993611;28;20215;-85
2022/09/04 13:15:18;;;;;;;2.65;1.48;;;;;;;;;;4992497;28;20894;-85
2022/09/04 13:17:48;;;;;;;1.55;1.45;;;;;;;;;;4993066;28;20231;-85
2022/09/04 13:20:19;;;;;;;1.40;1.30;;;;;;;;;;4992632;28;20231;-86
2022/09/04 13:22:53;;;;;;;1.70;1.50;;;;;;;;;;4992898;28;20676;-84
2022/09/04 13:25:29;;;;;;;1.40;1.30;;;;;;;;;;4992758;28;20239;-85
2022/09/04 13:28:02;;;;;;;1.73;1.63;;;;;;;;;;4992858;28;20231;-85
2022/09/04 13:30:29;;;;;;;1.67;1.58;;;;;;;;;;4992455;28;20231;-85
2022/09/04 13:33:12;;;;;;;1.63;1.45;;;;;;;;;;4992462;28;20222;-85
2022/09/04 13:35:43;;;;;;;1.70;1.60;;;;;;;;;;4991990;28;20246;-85
2022/09/04 13:38:25;;;;;;;2.10;1.70;;;;;;;;;;4993115;28;20224;-84
2022/09/04 13:41:05;;;;;;;2.35;1.50;;;;;;;;;;5026246;28;20713;-85
2022/09/04 13:43:40;;;;;;;1.50;1.40;;;;;;;;;;4993997;28;20200;-85
2022/09/04 13:46:10;;;;;;;1.73;1.50;;;;;;;;;;5002474;28;20254;-84
2022/09/04 13:48:40;;;;;;;1.27;1.17;;;;;;;;;;5003608;28;20662;-85
2022/09/04 13:51:10;;;;;;;1.77;1.02;;;;;;;;;;4991622;28;20245;-84
2022/09/04 13:53:42;;;;;;;0.80;0.80;;;;;;;;;;4992441;28;20228;-84
2022/09/04 13:56:13;;;;;;;2.28;1.10;;;;;;;;;;4991975;28;20232;-85
2022/09/04 13:58:45;;;;;;;1.95;1.17;;;;;;;;;;4992616;28;20224;-85
2022/09/04 14:01:15;;;;;;;1.45;1.35;;;;;;;;;;4995003;28;20286;-85
2022/09/04 14:03:45;;;;;;;1.15;1.05;;;;;;;;;;4994845;28;20253;-85
2022/09/04 14:06:14;;;;;;;1.63;1.30;;;;;;;;;;4995649;28;20236;-84
2022/09/04 14:08:41;;;;;;;1.25;1.13;;;;;;;;;;4998772;28;20254;-85
2022/09/04 14:11:21;;;;;;;1.30;1.20;;;;;;;;;;4995265;28;20236;-85
2022/09/04 14:13:54;;;;;;;1.90;1.05;;;;;;;;;;4993886;28;20573;-86
2022/09/04 14:16:22;;;;;;;1.27;1.05;;;;;;;;;;4992840;28;20263;-85
2022/09/04 14:19:00;;;;;;;1.20;1.10;;;;;;;;;;5003702;28;20236;-85
2022/09/04 14:21:34;;;;;;;0.90;0.90;;;;;;;;;;4993985;28;20240;-85
2022/09/04 14:24:05;;;;;;;1.02;1.00;;;;;;;;;;4993517;28;20199;-84
2022/09/04 14:26:39;;;;;;;1.50;1.08;;;;;;;;;;4993388;28;20192;-85
2022/09/04 14:29:14;;;;;;;1.40;1.30;;;;;;;;;;4991147;28;20232;-85
2022/09/04 14:31:45;;;;;;;1.52;1.27;;;;;;;;;;4993146;28;20227;-85
2022/09/04 14:34:17;;;;;;;1.35;1.25;;;;;;;;;;5012374;28;20231;-85
2022/09/04 14:36:53;;;;;;;1.17;1.00;;;;;;;;;;5012303;28;20215;-85
2022/09/04 14:39:24;;;;;;;1.25;0.90;;;;;;;;;;5013008;28;20245;-85
2022/09/04 14:42:10;;;;;;;1.02;0.93;;;;;;;;;;5012182;28;20293;-85
2022/09/04 14:44:43;;;;;;;1.13;1.02;;;;;;;;;;5011939;28;20243;-85
2022/09/04 14:47:19;;;;;;;1.50;1.23;;;;;;;;;;5011981;28;20203;-83
2022/09/04 14:49:48;;;;;;;1.42;1.15;;;;;;;;;;5011850;28;20603;-85
2022/09/04 14:52:18;;;;;;;1.20;1.10;;;;;;;;;;4993712;28;20228;-85
2022/09/04 14:54:45;;;;;;;1.25;1.15;;;;;;;;;;4992743;28;20242;-86
2022/09/04 14:57:18;;;;;;;1.08;0.90;;;;;;;;;;4992362;28;20200;-85
2022/09/04 14:59:48;;;;;;;1.75;1.30;;;;;;;;;;4991441;28;20235;-83
2022/09/04 15:02:21;;;;;;;1.10;1.00;;;;;;;;;;4991570;28;20303;-84
2022/09/04 15:04:51;;;;;;;1.35;1.15;;;;;;;;;;4991084;28;20232;-84
2022/09/04 15:07:34;;;;;;;1.15;1.10;;;;;;;;;;4989091;28;20740;-84
2022/09/04 15:10:09;;;;;;;1.10;1.00;;;;;;;;;;4990754;28;20224;-82
2022/09/04 15:12:39;;;;;;;1.00;1.00;;;;;;;;;;4990695;28;20220;-83
2022/09/04 15:15:10;;;;;;;1.20;1.10;;;;;;;;;;4994112;28;20228;-84
2022/09/04 15:17:39;;;;;;;0.93;0.93;;;;;;;;;;4991703;28;20663;-84
2022/09/04 15:20:12;;;;;;;2.97;1.00;;;;;;;;;;4991816;28;20224;-84
2022/09/04 15:22:41;;;;;;;1.58;0.95;;;;;;;;;;4991341;28;20655;-83
2022/09/04 15:25:09;;;;;;;1.23;1.13;;;;;;;;;;4991367;28;20239;-83
2022/09/04 15:27:45;;;;;;;2.40;1.05;;;;;;;;;;4991609;28;20204;-84
2022/09/04 15:30:18;;;;;;;1.23;1.13;;;;;;;;;;4984225;28;20598;-83
2022/09/04 15:32:45;;;;;;;1.50;0.98;;;;;;;;;;4991081;28;20327;-83
2022/09/04 15:35:14;;;;;;;1.05;0.90;;;;;;;;;;4991507;28;20228;-83
2022/09/04 15:37:42;;;;;;;1.83;1.10;;;;;;;;;;4994401;28;20204;-83
2022/09/04 15:40:11;;;;;;;1.75;1.25;;;;;;;;;;4993136;28;20337;-83